sensor_id;sensor_type;location;lat;lon;timestamp;pressure;altitude;pressure_sealevel;temperature;humidity
74631;BME280;63138;55.082;38.804;2023-06-26T00:00:05;99773.53;;;14.02;73.22
74631;BME280;63138;55.082;38.804;2023-06-26T00:02:33;99751.88;;;13.94;72.64
74631;BME280;63138;55.082;38.804;2023-06-26T00:04:59;99766.22;;;14.03;73.27
74631;BME280;63138;55.082;38.804;2023-06-26T00:07:32;99764.47;;;13.95;74.01
74631;BME280;63138;55.082;38.804;2023-06-26T00:10:02;99763.44;;;13.96;74.29
74631;BME280;63138;55.082;38.804;2023-06-26T00:12:31;99756.72;;;13.92;73.74
74631;BME280;63138;55.082;38.804;2023-06-26T00:14:58;99759.06;;;14.02;72.03
74631;BME280;63138;55.082;38.804;2023-06-26T00:17:25;99753.16;;;13.98;73.59
74631;BME280;63138;55.082;38.804;2023-06-26T00:19:51;99756.28;;;13.95;73.35
74631;BME280;63138;55.082;38.804;2023-06-26T00:22:18;99751.03;;;13.87;73.93
74631;BME280;63138;55.082;38.804;2023-06-26T00:24:45;99758.09;;;13.74;75.87
74631;BME280;63138;55.082;38.804;2023-06-26T00:27:11;99749.88;;;13.68;76.98
74631;BME280;63138;55.082;38.804;2023-06-26T00:29:37;99760.97;;;13.66;77.04
74631;BME280;63138;55.082;38.804;2023-06-26T00:32:06;99757.16;;;13.61;77.56
74631;BME280;63138;55.082;38.804;2023-06-26T00:34:34;99747.50;;;13.58;78.16
74631;BME280;63138;55.082;38.804;2023-06-26T00:37:00;99748.59;;;13.64;75.10
74631;BME280;63138;55.082;38.804;2023-06-26T00:39:26;99745.13;;;13.83;72.72
74631;BME280;63138;55.082;38.804;2023-06-26T00:41:53;99743.50;;;13.95;71.57
74631;BME280;63138;55.082;38.804;2023-06-26T00:44:22;99734.25;;;13.96;70.62
74631;BME280;63138;55.082;38.804;2023-06-26T00:46:48;99741.00;;;14.07;70.40
74631;BME280;63138;55.082;38.804;2023-06-26T00:49:15;99751.69;;;14.02;73.59
74631;BME280;63138;55.082;38.804;2023-06-26T00:51:42;99744.28;;;13.89;74.10
74631;BME280;63138;55.082;38.804;2023-06-26T00:54:09;99752.88;;;13.86;74.53
74631;BME280;63138;55.082;38.804;2023-06-26T00:56:35;99743.66;;;13.87;75.30
74631;BME280;63138;55.082;38.804;2023-06-26T00:59:01;99746.44;;;13.94;75.23
74631;BME280;63138;55.082;38.804;2023-06-26T01:01:31;99743.06;;;13.99;75.42
74631;BME280;63138;55.082;38.804;2023-06-26T01:03:58;99745.25;;;14.10;74.42
74631;BME280;63138;55.082;38.804;2023-06-26T01:06:25;99742.31;;;14.18;74.10
74631;BME280;63138;55.082;38.804;2023-06-26T01:08:55;99744.63;;;14.21;74.33
74631;BME280;63138;55.082;38.804;2023-06-26T01:11:21;99737.50;;;14.27;74.29
74631;BME280;63138;55.082;38.804;2023-06-26T01:13:47;99739.41;;;14.33;74.03
74631;BME280;63138;55.082;38.804;2023-06-26T01:16:14;99745.28;;;14.37;74.02
74631;BME280;63138;55.082;38.804;2023-06-26T01:18:45;99734.41;;;14.50;73.23
74631;BME280;63138;55.082;38.804;2023-06-26T01:21:15;99736.13;;;14.71;72.36
74631;BME280;63138;55.082;38.804;2023-06-26T01:24:33;99739.53;;;14.86;71.80
74631;BME280;63138;55.082;38.804;2023-06-26T01:26:53;99738.06;;;14.77;71.81
74631;BME280;63138;55.082;38.804;2023-06-26T01:29:20;99747.88;;;14.51;72.67
74631;BME280;63138;55.082;38.804;2023-06-26T01:31:49;99743.16;;;14.25;74.18
74631;BME280;63138;55.082;38.804;2023-06-26T01:34:17;99740.22;;;14.13;74.75
74631;BME280;63138;55.082;38.804;2023-06-26T01:36:44;99737.00;;;14.03;75.08
74631;BME280;63138;55.082;38.804;2023-06-26T01:39:17;99739.72;;;13.96;75.39
74631;BME280;63138;55.082;38.804;2023-06-26T01:41:43;99733.56;;;13.88;76.10
74631;BME280;63138;55.082;38.804;2023-06-26T01:47:09;99745.28;;;13.75;77.31
74631;BME280;63138;55.082;38.804;2023-06-26T01:49:56;99753.59;;;13.60;78.53
74631;BME280;63138;55.082;38.804;2023-06-26T01:52:31;99745.56;;;13.45;79.38
74631;BME280;63138;55.082;38.804;2023-06-26T01:57:31;99757.72;;;13.21;81.74
74631;BME280;63138;55.082;38.804;2023-06-26T01:59:59;99761.63;;;13.12;82.50
74631;BME280;63138;55.082;38.804;2023-06-26T02:02:28;99748.56;;;13.00;83.42
74631;BME280;63138;55.082;38.804;2023-06-26T02:04:54;99751.66;;;12.97;82.78
74631;BME280;63138;55.082;38.804;2023-06-26T02:07:21;99758.41;;;13.01;81.87
74631;BME280;63138;55.082;38.804;2023-06-26T02:09:46;99753.06;;;13.15;80.47
74631;BME280;63138;55.082;38.804;2023-06-26T02:12:12;99761.28;;;13.50;77.93
74631;BME280;63138;55.082;38.804;2023-06-26T02:14:39;99749.78;;;13.96;74.49
74631;BME280;63138;55.082;38.804;2023-06-26T02:17:05;99748.88;;;14.44;72.30
74631;BME280;63138;55.082;38.804;2023-06-26T02:19:31;99741.00;;;14.76;70.81
74631;BME280;63138;55.082;38.804;2023-06-26T02:21:57;99737.00;;;15.18;69.85
74631;BME280;63138;55.082;38.804;2023-06-26T02:24:24;99729.81;;;15.44;68.08
74631;BME280;63138;55.082;38.804;2023-06-26T02:26:50;99741.53;;;15.78;66.29
74631;BME280;63138;55.082;38.804;2023-06-26T02:29:16;99734.25;;;16.10;65.39
74631;BME280;63138;55.082;38.804;2023-06-26T02:31:42;99739.63;;;16.62;63.44
74631;BME280;63138;55.082;38.804;2023-06-26T02:34:07;99730.63;;;17.12;61.66
74631;BME280;63138;55.082;38.804;2023-06-26T02:36:34;99727.13;;;17.67;60.04
74631;BME280;63138;55.082;38.804;2023-06-26T02:39:04;99735.44;;;18.15;58.57
74631;BME280;63138;55.082;38.804;2023-06-26T02:41:30;99729.88;;;18.64;56.86
74631;BME280;63138;55.082;38.804;2023-06-26T02:43:55;99724.13;;;19.08;55.13
74631;BME280;63138;55.082;38.804;2023-06-26T02:46:21;99732.97;;;19.45;53.96
74631;BME280;63138;55.082;38.804;2023-06-26T02:48:48;99732.59;;;19.89;52.74
74631;BME280;63138;55.082;38.804;2023-06-26T02:51:13;99731.66;;;20.24;51.60
74631;BME280;63138;55.082;38.804;2023-06-26T02:53:39;99737.84;;;20.60;50.99
74631;BME280;63138;55.082;38.804;2023-06-26T02:56:06;99741.63;;;20.99;50.07
74631;BME280;63138;55.082;38.804;2023-06-26T02:58:33;99739.00;;;21.10;49.22
74631;BME280;63138;55.082;38.804;2023-06-26T03:00:59;99736.00;;;20.94;49.12
74631;BME280;63138;55.082;38.804;2023-06-26T03:03:25;99736.41;;;20.86;48.96
74631;BME280;63138;55.082;38.804;2023-06-26T03:05:51;99730.72;;;21.27;47.69
74631;BME280;63138;55.082;38.804;2023-06-26T03:08:16;99742.34;;;21.46;47.32
74631;BME280;63138;55.082;38.804;2023-06-26T03:10:42;99742.34;;;21.46;46.78
74631;BME280;63138;55.082;38.804;2023-06-26T03:13:10;99744.94;;;21.52;46.93
74631;BME280;63138;55.082;38.804;2023-06-26T03:15:36;99741.56;;;21.67;46.15
74631;BME280;63138;55.082;38.804;2023-06-26T03:18:02;99740.47;;;22.12;45.50
74631;BME280;63138;55.082;38.804;2023-06-26T03:20:28;99744.91;;;22.90;44.02
74631;BME280;63138;55.082;38.804;2023-06-26T03:22:56;99739.66;;;22.61;44.05
74631;BME280;63138;55.082;38.804;2023-06-26T03:25:23;99733.75;;;22.03;45.15
74631;BME280;63138;55.082;38.804;2023-06-26T03:27:55;99748.53;;;21.70;45.92
74631;BME280;63138;55.082;38.804;2023-06-26T03:30:21;99737.00;;;21.22;47.00
74631;BME280;63138;55.082;38.804;2023-06-26T03:32:49;99740.91;;;21.26;47.21
74631;BME280;63138;55.082;38.804;2023-06-26T03:35:16;99737.00;;;21.22;47.95
74631;BME280;63138;55.082;38.804;2023-06-26T03:37:42;99747.38;;;21.15;47.79
74631;BME280;63138;55.082;38.804;2023-06-26T03:40:09;99740.25;;;20.85;49.20
74631;BME280;63138;55.082;38.804;2023-06-26T03:42:36;99745.16;;;20.83;49.05
74631;BME280;63138;55.082;38.804;2023-06-26T03:45:03;99739.31;;;20.79;49.23
74631;BME280;63138;55.082;38.804;2023-06-26T03:47:30;99741.16;;;20.74;49.82
74631;BME280;63138;55.082;38.804;2023-06-26T03:49:56;99740.31;;;20.73;49.99
74631;BME280;63138;55.082;38.804;2023-06-26T03:52:22;99732.34;;;20.60;50.52
74631;BME280;63138;55.082;38.804;2023-06-26T03:54:49;99741.34;;;20.84;49.92
74631;BME280;63138;55.082;38.804;2023-06-26T03:57:16;99746.44;;;20.75;50.08
74631;BME280;63138;55.082;38.804;2023-06-26T03:59:42;99745.69;;;20.80;50.71
74631;BME280;63138;55.082;38.804;2023-06-26T04:02:08;99750.88;;;21.10;49.97
74631;BME280;63138;55.082;38.804;2023-06-26T04:04:34;99742.75;;;20.87;49.01
74631;BME280;63138;55.082;38.804;2023-06-26T04:07:00;99746.03;;;20.84;49.88
74631;BME280;63138;55.082;38.804;2023-06-26T04:09:26;99749.19;;;20.47;50.84
74631;BME280;63138;55.082;38.804;2023-06-26T04:11:52;99745.00;;;20.44;50.87
74631;BME280;63138;55.082;38.804;2023-06-26T04:14:18;99739.25;;;20.74;50.03
74631;BME280;63138;55.082;38.804;2023-06-26T04:16:44;99743.66;;;20.47;50.96
74631;BME280;63138;55.082;38.804;2023-06-26T04:19:11;99735.75;;;20.96;48.94
74631;BME280;63138;55.082;38.804;2023-06-26T04:21:37;99744.16;;;21.57;48.03
74631;BME280;63138;55.082;38.804;2023-06-26T04:24:04;99725.06;;;21.72;47.34
74631;BME280;63138;55.082;38.804;2023-06-26T04:26:30;99739.91;;;22.10;46.87
74631;BME280;63138;55.082;38.804;2023-06-26T04:28:55;99744.78;;;22.03;47.12
74631;BME280;63138;55.082;38.804;2023-06-26T04:31:21;99735.66;;;22.47;46.47
74631;BME280;63138;55.082;38.804;2023-06-26T04:33:48;99739.34;;;22.85;45.30
74631;BME280;63138;55.082;38.804;2023-06-26T04:36:17;99737.94;;;23.09;45.25
74631;BME280;63138;55.082;38.804;2023-06-26T04:38:43;99733.78;;;23.50;44.38
74631;BME280;63138;55.082;38.804;2023-06-26T04:41:09;99743.78;;;23.98;43.06
74631;BME280;63138;55.082;38.804;2023-06-26T04:43:35;99733.06;;;24.22;42.67
74631;BME280;63138;55.082;38.804;2023-06-26T04:46:02;99725.66;;;24.43;41.83
74631;BME280;63138;55.082;38.804;2023-06-26T04:48:28;99745.16;;;25.00;40.54
74631;BME280;63138;55.082;38.804;2023-06-26T04:50:56;99731.53;;;24.88;40.39
74631;BME280;63138;55.082;38.804;2023-06-26T04:53:25;99734.06;;;24.90;40.07
74631;BME280;63138;55.082;38.804;2023-06-26T04:55:52;99732.41;;;25.09;39.77
74631;BME280;63138;55.082;38.804;2023-06-26T04:58:19;99724.06;;;25.14;39.15
74631;BME280;63138;55.082;38.804;2023-06-26T05:00:45;99727.13;;;25.08;39.37
74631;BME280;63138;55.082;38.804;2023-06-26T05:03:12;99733.25;;;25.30;38.51
74631;BME280;63138;55.082;38.804;2023-06-26T05:05:39;99726.25;;;25.23;38.76
74631;BME280;63138;55.082;38.804;2023-06-26T05:10:40;99725.19;;;25.34;38.13
74631;BME280;63138;55.082;38.804;2023-06-26T05:13:06;99723.25;;;25.24;38.83
74631;BME280;63138;55.082;38.804;2023-06-26T05:18:16;99727.38;;;24.75;39.58
74631;BME280;63138;55.082;38.804;2023-06-26T05:20:43;99727.00;;;24.41;40.31
74631;BME280;63138;55.082;38.804;2023-06-26T05:23:11;99724.34;;;24.82;39.69
74631;BME280;63138;55.082;38.804;2023-06-26T05:25:37;99720.75;;;24.82;38.93
74631;BME280;63138;55.082;38.804;2023-06-26T05:28:04;99723.50;;;25.12;38.46
74631;BME280;63138;55.082;38.804;2023-06-26T05:30:36;99728.53;;;25.31;38.50
74631;BME280;63138;55.082;38.804;2023-06-26T05:33:02;99727.38;;;25.58;37.80
74631;BME280;63138;55.082;38.804;2023-06-26T05:35:29;99721.22;;;25.71;37.48
74631;BME280;63138;55.082;38.804;2023-06-26T05:37:58;99716.72;;;25.85;36.71
74631;BME280;63138;55.082;38.804;2023-06-26T05:40:25;99713.91;;;26.06;36.13
74631;BME280;63138;55.082;38.804;2023-06-26T05:42:51;99714.75;;;26.51;35.53
74631;BME280;63138;55.082;38.804;2023-06-26T05:48:39;99704.13;;;26.63;34.64
74631;BME280;63138;55.082;38.804;2023-06-26T05:51:23;99704.44;;;27.25;33.46
74631;BME280;63138;55.082;38.804;2023-06-26T05:53:50;99704.22;;;27.17;33.39
74631;BME280;63138;55.082;38.804;2023-06-26T05:56:16;99713.66;;;27.55;32.73
74631;BME280;63138;55.082;38.804;2023-06-26T05:59:19;99714.72;;;27.83;32.19
74631;BME280;63138;55.082;38.804;2023-06-26T06:02:04;99712.31;;;27.48;32.30
74631;BME280;63138;55.082;38.804;2023-06-26T06:07:14;99720.09;;;27.51;32.50
74631;BME280;63138;55.082;38.804;2023-06-26T06:10:00;99720.28;;;27.83;32.71
74631;BME280;63138;55.082;38.804;2023-06-26T06:15:10;99725.44;;;28.19;31.60
74631;BME280;63138;55.082;38.804;2023-06-26T06:17:36;99708.75;;;28.57;31.33
74631;BME280;63138;55.082;38.804;2023-06-26T06:20:02;99719.50;;;29.02;30.41
74631;BME280;63138;55.082;38.804;2023-06-26T06:22:29;99711.19;;;29.16;30.15
74631;BME280;63138;55.082;38.804;2023-06-26T06:24:55;99718.16;;;29.00;29.79
74631;BME280;63138;55.082;38.804;2023-06-26T06:27:21;99710.94;;;29.12;29.47
74631;BME280;63138;55.082;38.804;2023-06-26T06:29:47;99718.25;;;29.27;29.58
74631;BME280;63138;55.082;38.804;2023-06-26T06:34:57;99711.25;;;28.78;29.45
74631;BME280;63138;55.082;38.804;2023-06-26T06:37:42;99716.78;;;28.02;30.56
74631;BME280;63138;55.082;38.804;2023-06-26T06:40:12;99703.75;;;27.92;30.45
74631;BME280;63138;55.082;38.804;2023-06-26T06:42:38;99696.69;;;27.52;31.51
74631;BME280;63138;55.082;38.804;2023-06-26T06:45:04;99697.31;;;27.14;31.29
74631;BME280;63138;55.082;38.804;2023-06-26T06:47:32;99702.59;;;27.69;31.34
74631;BME280;63138;55.082;38.804;2023-06-26T06:50:00;99700.97;;;27.68;31.38
74631;BME280;63138;55.082;38.804;2023-06-26T06:52:38;99690.44;;;28.08;29.42
74631;BME280;63138;55.082;38.804;2023-06-26T06:55:29;99695.59;;;28.20;27.93
74631;BME280;63138;55.082;38.804;2023-06-26T06:57:55;99700.59;;;27.75;28.65
74631;BME280;63138;55.082;38.804;2023-06-26T07:00:21;99701.81;;;28.55;28.09
74631;BME280;63138;55.082;38.804;2023-06-26T07:03:24;99699.03;;;28.74;28.55
74631;BME280;63138;55.082;38.804;2023-06-26T07:05:50;99688.81;;;28.26;30.07
74631;BME280;63138;55.082;38.804;2023-06-26T07:08:16;99699.59;;;28.33;30.71
74631;BME280;63138;55.082;38.804;2023-06-26T07:13:27;99696.91;;;28.66;29.18
74631;BME280;63138;55.082;38.804;2023-06-26T07:15:53;99690.81;;;28.64;28.92
74631;BME280;63138;55.082;38.804;2023-06-26T07:18:19;99686.38;;;29.42;27.09
74631;BME280;63138;55.082;38.804;2023-06-26T07:21:04;99697.69;;;29.51;27.19
74631;BME280;63138;55.082;38.804;2023-06-26T07:23:48;99693.16;;;28.89;27.40
74631;BME280;63138;55.082;38.804;2023-06-26T07:26:14;99683.25;;;29.16;26.29
74631;BME280;63138;55.082;38.804;2023-06-26T07:28:41;99676.75;;;28.69;27.72
74631;BME280;63138;55.082;38.804;2023-06-26T07:31:07;99680.22;;;28.79;27.36
74631;BME280;63138;55.082;38.804;2023-06-26T07:33:51;99682.44;;;28.96;27.76
74631;BME280;63138;55.082;38.804;2023-06-26T07:36:17;99685.59;;;29.09;26.78
74631;BME280;63138;55.082;38.804;2023-06-26T07:38:42;99678.81;;;28.96;26.78
74631;BME280;63138;55.082;38.804;2023-06-26T07:41:08;99676.63;;;29.26;25.89
74631;BME280;63138;55.082;38.804;2023-06-26T07:46:18;99667.44;;;29.25;24.49
74631;BME280;63138;55.082;38.804;2023-06-26T07:48:44;99670.03;;;29.49;24.96
74631;BME280;63138;55.082;38.804;2023-06-26T07:51:10;99663.56;;;28.55;24.14
74631;BME280;63138;55.082;38.804;2023-06-26T07:56:21;99672.13;;;28.78;24.45
74631;BME280;63138;55.082;38.804;2023-06-26T08:01:31;99652.44;;;28.69;25.87
74631;BME280;63138;55.082;38.804;2023-06-26T08:06:41;99669.19;;;28.88;24.30
74631;BME280;63138;55.082;38.804;2023-06-26T08:09:07;99661.94;;;29.20;22.62
74631;BME280;63138;55.082;38.804;2023-06-26T08:11:52;99660.19;;;29.38;22.80
74631;BME280;63138;55.082;38.804;2023-06-26T08:14:19;99662.19;;;29.93;23.14
74631;BME280;63138;55.082;38.804;2023-06-26T08:16:47;99657.72;;;29.92;23.50
74631;BME280;63138;55.082;38.804;2023-06-26T08:19:31;99651.84;;;29.80;23.12
74631;BME280;63138;55.082;38.804;2023-06-26T08:22:15;99650.88;;;29.70;23.70
74631;BME280;63138;55.082;38.804;2023-06-26T08:24:41;99648.91;;;29.57;24.56
74631;BME280;63138;55.082;38.804;2023-06-26T08:27:07;99657.13;;;29.81;23.86
74631;BME280;63138;55.082;38.804;2023-06-26T08:29:52;99659.69;;;30.05;23.56
74631;BME280;63138;55.082;38.804;2023-06-26T08:32:38;99662.41;;;29.83;24.05
74631;BME280;63138;55.082;38.804;2023-06-26T08:35:05;99651.00;;;29.79;23.83
74631;BME280;63138;55.082;38.804;2023-06-26T08:40:34;99634.63;;;29.45;22.73
74631;BME280;63138;55.082;38.804;2023-06-26T08:43:01;99642.72;;;29.88;22.76
74631;BME280;63138;55.082;38.804;2023-06-26T08:45:28;99650.38;;;29.68;23.18
74631;BME280;63138;55.082;38.804;2023-06-26T08:47:55;99654.50;;;29.99;23.47
74631;BME280;63138;55.082;38.804;2023-06-26T08:50:24;99632.69;;;30.23;23.20
74631;BME280;63138;55.082;38.804;2023-06-26T08:55:41;99633.50;;;29.13;23.54
74631;BME280;63138;55.082;38.804;2023-06-26T08:58:07;99624.03;;;28.81;23.65
74631;BME280;63138;55.082;38.804;2023-06-26T09:00:34;99637.81;;;28.91;24.34
74631;BME280;63138;55.082;38.804;2023-06-26T09:03:01;99635.44;;;29.17;24.18
74631;BME280;63138;55.082;38.804;2023-06-26T09:05:29;99638.22;;;28.85;24.48
74631;BME280;63138;55.082;38.804;2023-06-26T09:08:15;99632.31;;;28.53;25.57
74631;BME280;63138;55.082;38.804;2023-06-26T09:11:00;99632.81;;;28.17;25.70
74631;BME280;63138;55.082;38.804;2023-06-26T09:13:28;99634.38;;;27.08;27.09
74631;BME280;63138;55.082;38.804;2023-06-26T09:15:55;99631.13;;;26.66;27.97
74631;BME280;63138;55.082;38.804;2023-06-26T09:18:41;99643.91;;;25.73;30.59
74631;BME280;63138;55.082;38.804;2023-06-26T09:21:10;99644.22;;;25.71;30.70
74631;BME280;63138;55.082;38.804;2023-06-26T09:23:37;99631.53;;;26.05;30.14
74631;BME280;63138;55.082;38.804;2023-06-26T09:26:05;99634.94;;;25.97;30.29
74631;BME280;63138;55.082;38.804;2023-06-26T09:28:32;99630.56;;;25.75;30.24
74631;BME280;63138;55.082;38.804;2023-06-26T09:31:08;99637.53;;;25.67;30.58
74631;BME280;63138;55.082;38.804;2023-06-26T09:36:21;99639.59;;;24.49;36.03
74631;BME280;63138;55.082;38.804;2023-06-26T09:38:50;99634.38;;;24.47;36.86
74631;BME280;63138;55.082;38.804;2023-06-26T09:41:17;99634.91;;;24.39;37.25
74631;BME280;63138;55.082;38.804;2023-06-26T09:43:50;99632.94;;;24.19;37.73
74631;BME280;63138;55.082;38.804;2023-06-26T09:46:35;99620.72;;;24.20;37.86
74631;BME280;63138;55.082;38.804;2023-06-26T09:49:08;99627.47;;;24.65;36.87
74631;BME280;63138;55.082;38.804;2023-06-26T09:51:55;99621.22;;;23.86;38.60
74631;BME280;63138;55.082;38.804;2023-06-26T09:54:21;99628.06;;;23.78;38.90
74631;BME280;63138;55.082;38.804;2023-06-26T09:56:49;99619.38;;;23.54;38.29
74631;BME280;63138;55.082;38.804;2023-06-26T09:59:16;99617.38;;;24.08;37.26
74631;BME280;63138;55.082;38.804;2023-06-26T10:01:45;99614.97;;;24.68;35.89
74631;BME280;63138;55.082;38.804;2023-06-26T10:04:37;99610.47;;;25.03;35.94
74631;BME280;63138;55.082;38.804;2023-06-26T10:07:08;99611.28;;;25.18;34.54
74631;BME280;63138;55.082;38.804;2023-06-26T10:09:38;99605.09;;;25.47;34.31
74631;BME280;63138;55.082;38.804;2023-06-26T10:14:37;99614.34;;;25.98;31.46
74631;BME280;63138;55.082;38.804;2023-06-26T10:17:14;99612.06;;;26.05;31.35
74631;BME280;63138;55.082;38.804;2023-06-26T10:20:02;99603.69;;;26.15;31.53
74631;BME280;63138;55.082;38.804;2023-06-26T10:22:44;99604.59;;;26.40;30.96
74631;BME280;63138;55.082;38.804;2023-06-26T10:25:12;99606.16;;;26.56;31.28
74631;BME280;63138;55.082;38.804;2023-06-26T10:27:43;99604.66;;;26.74;30.92
74631;BME280;63138;55.082;38.804;2023-06-26T10:30:14;99594.66;;;26.28;32.26
74631;BME280;63138;55.082;38.804;2023-06-26T10:32:42;99603.94;;;26.53;31.63
74631;BME280;63138;55.082;38.804;2023-06-26T10:35:10;99597.56;;;26.52;31.78
74631;BME280;63138;55.082;38.804;2023-06-26T10:37:49;99603.47;;;26.41;31.50
74631;BME280;63138;55.082;38.804;2023-06-26T10:43:09;99607.03;;;25.52;32.80
74631;BME280;63138;55.082;38.804;2023-06-26T10:45:36;99596.16;;;25.61;32.32
74631;BME280;63138;55.082;38.804;2023-06-26T10:48:03;99570.66;;;25.48;31.29
74631;BME280;63138;55.082;38.804;2023-06-26T10:50:31;99583.75;;;25.22;30.46
74631;BME280;63138;55.082;38.804;2023-06-26T10:56:01;99581.00;;;25.87;30.07
74631;BME280;63138;55.082;38.804;2023-06-26T11:01:25;99558.34;;;26.49;29.71
74631;BME280;63138;55.082;38.804;2023-06-26T11:04:06;99560.13;;;26.35;27.86
74631;BME280;63138;55.082;38.804;2023-06-26T11:12:08;99552.94;;;26.28;27.65
74631;BME280;63138;55.082;38.804;2023-06-26T11:14:35;99541.16;;;26.07;28.38
74631;BME280;63138;55.082;38.804;2023-06-26T11:17:02;99534.94;;;25.71;28.55
74631;BME280;63138;55.082;38.804;2023-06-26T11:19:29;99522.59;;;25.87;28.70
74631;BME280;63138;55.082;38.804;2023-06-26T11:22:04;99522.91;;;25.86;28.89
74631;BME280;63138;55.082;38.804;2023-06-26T11:24:31;99528.66;;;26.00;27.49
74631;BME280;63138;55.082;38.804;2023-06-26T11:27:00;99542.16;;;26.22;27.70
74631;BME280;63138;55.082;38.804;2023-06-26T11:29:26;99520.97;;;26.26;27.10
74631;BME280;63138;55.082;38.804;2023-06-26T11:31:59;99527.41;;;26.50;26.44
74631;BME280;63138;55.082;38.804;2023-06-26T11:34:29;99533.34;;;26.44;26.65
74631;BME280;63138;55.082;38.804;2023-06-26T11:37:19;99533.41;;;26.33;27.22
74631;BME280;63138;55.082;38.804;2023-06-26T11:39:45;99523.34;;;26.03;27.49
74631;BME280;63138;55.082;38.804;2023-06-26T11:42:11;99510.94;;;25.85;27.48
74631;BME280;63138;55.082;38.804;2023-06-26T11:44:55;99522.78;;;26.06;27.02
74631;BME280;63138;55.082;38.804;2023-06-26T11:47:21;99514.97;;;26.08;27.48
74631;BME280;63138;55.082;38.804;2023-06-26T11:49:49;99499.50;;;25.92;28.00
74631;BME280;63138;55.082;38.804;2023-06-26T11:52:16;99506.47;;;25.45;26.76
74631;BME280;63138;55.082;38.804;2023-06-26T11:54:43;99490.19;;;25.17;26.55
74631;BME280;63138;55.082;38.804;2023-06-26T11:57:13;99514.03;;;25.18;26.79
74631;BME280;63138;55.082;38.804;2023-06-26T11:59:41;99523.25;;;25.14;26.60
74631;BME280;63138;55.082;38.804;2023-06-26T12:02:12;99520.75;;;25.07;27.09
74631;BME280;63138;55.082;38.804;2023-06-26T12:04:41;99512.69;;;25.11;26.98
74631;BME280;63138;55.082;38.804;2023-06-26T12:07:27;99503.22;;;25.12;27.30
74631;BME280;63138;55.082;38.804;2023-06-26T12:09:53;99518.59;;;24.89;28.66
74631;BME280;63138;55.082;38.804;2023-06-26T12:12:21;99513.03;;;24.94;28.63
74631;BME280;63138;55.082;38.804;2023-06-26T12:14:47;99502.41;;;25.06;28.51
74631;BME280;63138;55.082;38.804;2023-06-26T12:17:32;99504.59;;;25.19;28.47
74631;BME280;63138;55.082;38.804;2023-06-26T12:19:58;99501.59;;;25.11;28.52
74631;BME280;63138;55.082;38.804;2023-06-26T12:23:02;99484.66;;;25.07;28.39
74631;BME280;63138;55.082;38.804;2023-06-26T12:26:20;99484.41;;;24.98;28.37
74631;BME280;63138;55.082;38.804;2023-06-26T12:28:47;99498.19;;;25.19;27.90
74631;BME280;63138;55.082;38.804;2023-06-26T12:31:15;99490.84;;;25.54;27.46
74631;BME280;63138;55.082;38.804;2023-06-26T12:33:43;99491.31;;;25.71;27.24
74631;BME280;63138;55.082;38.804;2023-06-26T12:36:27;99493.19;;;25.31;26.68
74631;BME280;63138;55.082;38.804;2023-06-26T12:38:54;99469.28;;;25.35;26.55
74631;BME280;63138;55.082;38.804;2023-06-26T12:41:24;99498.78;;;25.71;26.17
74631;BME280;63138;55.082;38.804;2023-06-26T12:43:55;99491.31;;;26.11;25.85
74631;BME280;63138;55.082;38.804;2023-06-26T12:46:33;99497.78;;;26.01;25.98
74631;BME280;63138;55.082;38.804;2023-06-26T12:49:01;99483.28;;;26.09;26.15
74631;BME280;63138;55.082;38.804;2023-06-26T12:51:27;99484.91;;;26.40;26.34
74631;BME280;63138;55.082;38.804;2023-06-26T12:53:53;99478.09;;;26.56;26.34
74631;BME280;63138;55.082;38.804;2023-06-26T12:56:20;99455.97;;;26.41;25.32
74631;BME280;63138;55.082;38.804;2023-06-26T12:58:46;99485.31;;;26.57;24.78
74631;BME280;63138;55.082;38.804;2023-06-26T13:01:12;99467.81;;;25.93;25.67
74631;BME280;63138;55.082;38.804;2023-06-26T13:03:41;99445.84;;;25.91;26.15
74631;BME280;63138;55.082;38.804;2023-06-26T13:06:25;99468.06;;;25.97;27.13
74631;BME280;63138;55.082;38.804;2023-06-26T13:08:51;99472.97;;;25.65;28.15
74631;BME280;63138;55.082;38.804;2023-06-26T13:11:17;99470.78;;;25.02;29.20
74631;BME280;63138;55.082;38.804;2023-06-26T13:13:44;99467.44;;;25.10;29.55
74631;BME280;63138;55.082;38.804;2023-06-26T13:16:29;99450.53;;;24.96;29.22
74631;BME280;63138;55.082;38.804;2023-06-26T13:18:55;99451.34;;;25.07;29.18
74631;BME280;63138;55.082;38.804;2023-06-26T13:21:23;99451.56;;;25.21;28.46
74631;BME280;63138;55.082;38.804;2023-06-26T13:23:49;99457.28;;;25.40;28.53
74631;BME280;63138;55.082;38.804;2023-06-26T13:26:15;99463.31;;;25.58;28.24
74631;BME280;63138;55.082;38.804;2023-06-26T13:28:41;99454.91;;;25.68;27.62
74631;BME280;63138;55.082;38.804;2023-06-26T13:31:07;99461.78;;;25.81;27.52
74631;BME280;63138;55.082;38.804;2023-06-26T13:33:52;99452.91;;;26.13;27.06
74631;BME280;63138;55.082;38.804;2023-06-26T13:36:37;99434.78;;;26.16;26.33
74631;BME280;63138;55.082;38.804;2023-06-26T13:39:03;99457.75;;;26.31;26.58
74631;BME280;63138;55.082;38.804;2023-06-26T13:41:29;99459.41;;;25.98;27.19
74631;BME280;63138;55.082;38.804;2023-06-26T13:43:55;99469.63;;;25.08;29.70
74631;BME280;63138;55.082;38.804;2023-06-26T13:46:20;99459.56;;;24.16;31.43
74631;BME280;63138;55.082;38.804;2023-06-26T13:48:47;99480.28;;;23.52;36.00
74631;BME280;63138;55.082;38.804;2023-06-26T13:51:13;99496.84;;;23.37;37.98
74631;BME280;63138;55.082;38.804;2023-06-26T13:53:39;99488.00;;;23.40;38.06
74631;BME280;63138;55.082;38.804;2023-06-26T13:56:05;99499.53;;;23.11;37.03
74631;BME280;63138;55.082;38.804;2023-06-26T13:58:31;99483.97;;;23.00;36.62
74631;BME280;63138;55.082;38.804;2023-06-26T14:00:59;99472.13;;;23.09;35.97
74631;BME280;63138;55.082;38.804;2023-06-26T14:03:26;99471.06;;;23.16;35.74